Time;durP1;ratioP1;P1;durP2;ratioP2;P2;SDS_P1;SDS_P2;PMS_P1;PMS_P2;Temp;Humidity;BMP_temperature;BMP_pressure;BME280_temperature;BME280_humidity;BME280_pressure;Samples;Min_cycle;Max_cycle;Signal;HPM_P1;HPM_P2
2021/12/13 00:01:43;;;;;;;9.60;5.85;;;;;;;4.90;100.00;100358.72;4949709;28;20532;-66
2021/12/13 00:05:02;;;;;;;11.55;6.53;;;;;;;4.89;100.00;100359.69;4943282;28;20043;-66
2021/12/13 00:07:30;;;;;;;11.40;6.25;;;;;;;4.90;100.00;100367.50;4915618;29;20065;-67
2021/12/13 00:09:57;;;;;;;11.98;6.80;;;;;;;4.88;100.00;100358.06;4944060;28;20062;-65
2021/12/13 00:12:29;;;;;;;10.20;6.63;;;;;;;4.88;100.00;100356.22;4948223;28;20348;-67
2021/12/13 00:14:56;;;;;;;11.60;6.05;;;;;;;4.90;100.00;100356.88;4930332;28;20089;-67
2021/12/13 00:17:25;;;;;;;7.00;4.65;;;;;;;4.88;100.00;100353.56;4937777;28;20177;-67
2021/12/13 00:19:59;;;;;;;13.38;7.55;;;;;;;4.83;100.00;100355.91;4932924;28;20082;-67
2021/12/13 00:22:49;;;;;;;11.85;7.20;;;;;;;4.82;100.00;100358.75;4949156;28;20086;-66
2021/12/13 00:25:19;;;;;;;12.15;7.13;;;;;;;4.85;100.00;100359.22;4948562;28;20513;-65
2021/12/13 00:27:59;;;;;;;9.65;6.10;;;;;;;4.91;100.00;100355.84;4943236;28;20090;-67
2021/12/13 00:30:37;;;;;;;;;;;;;;;4.91;100.00;100357.69;4938590;28;20027;-66
2021/12/13 00:33:15;;;;;;;10.82;6.55;;;;;;;4.85;100.00;100359.22;4934369;28;19918;-66
2021/12/13 00:35:47;;;;;;;11.13;7.03;;;;;;;4.90;100.00;100356.88;4949614;28;20031;-66
2021/12/13 00:38:13;;;;;;;10.02;5.50;;;;;;;4.90;100.00;100351.56;4944408;28;20023;-66
2021/12/13 00:40:42;;;;;;;10.52;6.20;;;;;;;4.91;100.00;100347.06;4938878;28;20239;-66
2021/12/13 00:43:12;;;;;;;10.75;6.88;;;;;;;4.91;100.00;100363.00;4946399;28;20018;-67
2021/12/13 00:45:41;;;;;;;12.80;7.18;;;;;;;4.90;100.00;100356.88;4941904;28;20039;-66
2021/12/13 00:48:08;;;;;;;13.73;6.70;;;;;;;4.82;100.00;100362.25;4956451;28;20027;-65
2021/12/13 00:50:59;;;;;;;9.45;5.45;;;;;;;4.84;100.00;100362.91;4952044;28;20105;-67
2021/12/13 00:53:25;;;;;;;10.98;7.20;;;;;;;4.85;100.00;100359.22;4950693;28;20031;-65
2021/12/13 00:55:50;;;;;;;10.77;6.28;;;;;;;4.84;100.00;100357.59;4952252;28;20028;-65
2021/12/13 00:58:21;;;;;;;6.85;4.43;;;;;;;4.84;100.00;100362.91;4950667;28;20038;-66
2021/12/13 01:00:59;;;;;;;9.40;6.03;;;;;;;4.82;100.00;100358.75;4953389;28;20029;-65
2021/12/13 01:03:36;;;;;;;10.57;7.35;;;;;;;4.76;100.00;100361.09;4955301;28;20031;-65
2021/12/13 01:06:20;;;;;;;8.60;4.93;;;;;;;4.76;100.00;100365.59;4941328;28;20028;-66
2021/12/13 01:08:48;;;;;;;10.45;6.07;;;;;;;4.73;100.00;100360.66;4951972;28;20047;-66
2021/12/13 01:11:38;;;;;;;9.00;5.65;;;;;;;4.67;100.00;100367.50;4955270;28;20544;-66
2021/12/13 01:14:11;;;;;;;10.25;5.97;;;;;;;4.66;100.00;100376.44;4950635;28;20043;-65
2021/12/13 01:17:01;;;;;;;9.88;5.63;;;;;;;4.69;100.00;100364.66;4949209;28;20035;-66
2021/12/13 01:19:36;;;;;;;11.63;7.47;;;;;;;4.74;100.00;100383.53;4950183;28;20322;-66
2021/12/13 01:22:40;;;;;;;9.32;5.47;;;;;;;4.67;100.00;100372.81;4938553;28;20676;-66
2021/12/13 01:25:18;;;;;;;10.18;5.55;;;;;;;4.56;100.00;100369.72;4954579;28;20038;-67
2021/12/13 01:27:47;;;;;;;10.45;5.90;;;;;;;4.53;100.00;100370.91;4931457;28;20669;-67
2021/12/13 01:30:20;;;;;;;7.07;4.72;;;;;;;4.46;100.00;100370.75;4953027;28;20426;-67
2021/12/13 01:32:49;;;;;;;11.77;6.10;;;;;;;4.44;100.00;100375.44;4953072;28;20023;-67
2021/12/13 01:35:20;;;;;;;7.60;4.82;;;;;;;4.26;100.00;100365.06;4933991;28;20110;-66
2021/12/13 01:37:51;;;;;;;9.48;5.35;;;;;;;4.33;100.00;100375.81;4958204;28;20031;-66
2021/12/13 01:40:17;;;;;;;8.18;5.00;;;;;;;4.25;100.00;100384.66;4951569;28;20034;-66
2021/12/13 01:42:42;;;;;;;10.40;6.10;;;;;;;4.22;100.00;100384.16;4954006;28;20059;-65
2021/12/13 01:45:12;;;;;;;7.97;4.90;;;;;;;4.25;100.00;100389.94;4951658;28;20035;-65
2021/12/13 01:47:43;;;;;;;11.57;6.80;;;;;;;4.20;100.00;100388.81;4948751;28;20470;-65
2021/12/13 01:50:16;;;;;;;15.00;7.10;;;;;;;4.19;100.00;100389.81;4938811;28;20102;-65
2021/12/13 01:52:42;;;;;;;8.75;5.10;;;;;;;4.18;100.00;100390.81;4956654;28;20638;-65
2021/12/13 01:55:13;;;;;;;11.50;6.30;;;;;;;4.24;100.00;100387.47;4951535;28;20089;-66
2021/12/13 01:58:06;;;;;;;12.40;7.15;;;;;;;4.27;100.00;100389.78;4954336;28;20071;-65
2021/12/13 02:01:08;;;;;;;14.35;6.82;;;;;;;4.36;100.00;100387.91;4952638;28;20038;-65
2021/12/13 02:03:19;;;;;;;10.85;6.00;;;;;;;4.45;100.00;100384.22;4956044;28;20077;-65
2021/12/13 02:05:46;;;;;;;11.40;6.65;;;;;;;4.49;100.00;100386.38;4942056;28;20034;-65
2021/12/13 02:08:16;;;;;;;11.10;6.57;;;;;;;4.49;100.00;100389.03;4946798;28;20047;-66
2021/12/13 02:10:50;;;;;;;11.95;7.50;;;;;;;4.51;100.00;100384.34;4956236;28;20027;-66
2021/12/13 02:13:24;;;;;;;11.93;6.30;;;;;;;4.48;100.00;100400.63;4945686;28;20057;-66
2021/12/13 02:18:38;;;;;;;10.10;5.80;;;;;;;4.49;100.00;100381.06;4953385;28;20042;-65
2021/12/13 02:21:37;;;;;;;13.27;6.70;;;;;;;4.50;100.00;100381.88;4940083;28;20038;-65
2021/12/13 02:24:06;;;;;;;17.25;8.18;;;;;;;4.59;100.00;100387.94;4933074;28;20085;-66
2021/12/13 02:26:33;;;;;;;15.38;8.63;;;;;;;4.59;100.00;100393.25;4936777;28;20137;-66
2021/12/13 02:29:07;;;;;;;20.17;6.72;;;;;;;4.60;100.00;100393.09;4944133;28;20592;-66
2021/12/13 02:31:36;;;;;;;12.48;7.18;;;;;;;4.64;100.00;100390.91;4950540;28;20031;-67
2021/12/13 02:34:07;;;;;;;16.25;8.73;;;;;;;4.65;100.00;100385.44;4943879;28;20042;-66
2021/12/13 02:36:55;;;;;;;17.05;8.88;;;;;;;4.68;100.00;100389.56;4950872;28;20039;-66
2021/12/13 02:39:23;;;;;;;12.57;7.15;;;;;;;4.72;100.00;100390.88;4958060;28;20579;-67
2021/12/13 02:41:49;;;;;;;8.65;5.32;;;;;;;4.70;100.00;100382.25;4942715;28;20113;-66
2021/12/13 02:44:22;;;;;;;14.63;9.10;;;;;;;4.69;100.00;100373.47;4938680;29;20118;-66
2021/12/13 02:46:48;;;;;;;14.15;8.48;;;;;;;4.72;100.00;100375.75;4935742;28;20035;-66
2021/12/13 02:49:16;;;;;;;13.85;8.45;;;;;;;4.76;100.00;100384.19;4957683;28;20027;-66
2021/12/13 02:51:47;;;;;;;13.55;7.30;;;;;;;4.77;100.00;100372.59;4951234;28;20198;-66
2021/12/13 02:54:17;;;;;;;14.07;8.60;;;;;;;4.72;100.00;100381.06;4952010;28;20043;-66
2021/12/13 02:56:49;;;;;;;16.52;8.55;;;;;;;4.72;100.00;100374.94;4923466;28;20039;-66
2021/12/13 02:59:14;;;;;;;15.75;9.20;;;;;;;4.72;100.00;100388.22;4926559;28;20561;-66
2021/12/13 03:01:47;;;;;;;14.90;8.43;;;;;;;4.71;100.00;100378.59;4960304;28;20037;-65
2021/12/13 03:04:16;;;;;;;16.83;9.18;;;;;;;4.70;100.00;100384.91;4947593;28;20031;-65
2021/12/13 03:06:47;;;;;;;14.95;8.57;;;;;;;4.72;100.00;100374.94;4952013;28;20031;-66
2021/12/13 03:09:19;;;;;;;14.68;8.20;;;;;;;4.75;100.00;100385.22;4947083;28;20083;-65
2021/12/13 03:11:45;;;;;;;14.90;8.02;;;;;;;4.78;100.00;100384.03;4930502;29;20211;-66
2021/12/13 03:14:18;;;;;;;14.13;8.23;;;;;;;4.76;100.00;100381.53;4949483;28;20052;-67
2021/12/13 03:17:09;;;;;;;16.30;8.57;;;;;;;4.76;100.00;100386.84;4941364;28;20118;-65
2021/12/13 03:19:40;;;;;;;15.40;8.80;;;;;;;4.73;100.00;100393.34;4951465;28;20039;-65
2021/12/13 03:22:34;;;;;;;15.15;7.88;;;;;;;4.72;100.00;100390.88;4959142;28;20040;-65
2021/12/13 03:25:13;;;;;;;13.82;7.55;;;;;;;4.72;100.00;100396.19;4946010;28;20039;-66
2021/12/13 03:28:06;;;;;;;13.63;8.85;;;;;;;4.68;100.00;100390.38;4954860;28;20039;-67
2021/12/13 03:30:57;;;;;;;13.35;7.45;;;;;;;4.69;100.00;100391.19;4948955;28;20043;-67
2021/12/13 03:33:40;;;;;;;14.30;8.30;;;;;;;4.74;100.00;100394.16;4948032;28;20491;-67
2021/12/13 03:36:10;;;;;;;14.43;8.55;;;;;;;4.68;100.00;100389.56;4950999;28;20031;-65
2021/12/13 03:38:39;;;;;;;15.63;8.45;;;;;;;4.75;100.00;100383.38;4953484;28;20149;-65
2021/12/13 03:41:07;;;;;;;13.68;7.97;;;;;;;4.72;100.00;100390.88;4935238;28;20027;-65
2021/12/13 03:43:39;;;;;;;14.48;8.48;;;;;;;4.74;100.00;100388.84;4952596;28;20914;-65
2021/12/13 03:46:06;;;;;;;15.68;8.02;;;;;;;4.72;100.00;100396.19;4945591;28;20053;-65
2021/12/13 03:48:32;;;;;;;14.50;8.23;;;;;;;4.77;100.00;100393.81;4948334;28;20251;-65
2021/12/13 03:51:00;;;;;;;14.80;8.10;;;;;;;4.70;100.00;100383.06;4952993;28;20038;-65
2021/12/13 03:53:28;;;;;;;12.70;7.82;;;;;;;4.72;100.00;100396.19;4948458;28;20098;-66
2021/12/13 03:55:59;;;;;;;16.30;8.55;;;;;;;4.71;100.00;100395.34;4951815;28;20090;-65
2021/12/13 03:58:24;;;;;;;14.95;8.73;;;;;;;4.75;100.00;100399.31;4946329;28;20039;-65
2021/12/13 04:00:56;;;;;;;16.35;8.57;;;;;;;4.71;100.00;100398.00;4933035;29;20075;-66
2021/12/13 04:03:22;;;;;;;14.23;8.15;;;;;;;4.74;100.00;100395.00;4930223;28;20031;-65
2021/12/13 04:05:48;;;;;;;15.70;8.90;;;;;;;4.78;100.00;100399.97;4946822;28;20142;-65
2021/12/13 04:08:16;;;;;;;16.58;8.45;;;;;;;4.76;100.00;100397.47;4948513;28;20162;-65
2021/12/13 04:11:07;;;;;;;16.75;9.38;;;;;;;4.81;100.00;100396.94;4945697;28;20587;-66
2021/12/13 04:13:36;;;;;;;13.20;7.88;;;;;;;4.80;100.00;100396.13;4927677;28;20034;-65
2021/12/13 04:16:46;;;;;;;13.63;7.78;;;;;;;4.84;100.00;100391.28;4950630;28;20035;-65
2021/12/13 04:19:12;;;;;;;13.85;7.55;;;;;;;4.88;100.00;100389.94;4941990;28;20030;-67
2021/12/13 04:22:04;;;;;;;13.27;7.18;;;;;;;4.90;100.00;100394.06;4952934;28;20109;-66
2021/12/13 04:24:35;;;;;;;15.10;8.50;;;;;;;4.84;100.00;100405.41;4939884;28;20062;-67
2021/12/13 04:27:05;;;;;;;13.15;7.35;;;;;;;4.84;100.00;100402.75;4950913;28;20038;-66
2021/12/13 04:29:35;;;;;;;13.95;7.57;;;;;;;4.87;100.00;100399.72;4955156;28;20754;-66
2021/12/13 04:32:14;;;;;;;12.07;7.38;;;;;;;4.90;100.00;100409.19;4943749;28;20368;-66
2021/12/13 04:34:42;;;;;;;11.65;6.68;;;;;;;4.89;100.00;100403.06;4954007;28;20281;-66
2021/12/13 04:37:10;;;;;;;16.55;9.38;;;;;;;4.85;100.00;100417.69;4941553;28;20031;-66
2021/12/13 04:39:36;;;;;;;14.00;7.18;;;;;;;4.90;100.00;100403.88;4939137;28;20039;-68
2021/12/13 04:42:05;;;;;;;13.25;7.72;;;;;;;4.90;100.00;100415.31;4939565;28;20034;-66
2021/12/13 04:44:43;;;;;;;14.25;7.32;;;;;;;4.94;100.00;100408.66;4956460;28;20477;-66
2021/12/13 04:47:14;;;;;;;16.73;10.02;;;;;;;4.86;100.00;100413.19;4957161;28;20059;-66
2021/12/13 04:49:51;;;;;;;16.15;8.35;;;;;;;4.85;100.00;100412.38;4962615;28;20085;-66
2021/12/13 04:52:19;;;;;;;14.43;8.05;;;;;;;4.86;100.00;100419.31;4939429;28;20102;-66
2021/12/13 04:54:49;;;;;;;14.80;8.35;;;;;;;4.90;100.00;100431.25;4953126;28;20117;-66
2021/12/13 04:57:15;;;;;;;12.50;6.68;;;;;;;4.96;100.00;100432.38;4928331;28;20437;-65
2021/12/13 04:59:41;;;;;;;15.32;7.38;;;;;;;4.95;100.00;100434.22;4948573;28;20054;-67
2021/12/13 05:02:09;;;;;;;12.40;6.70;;;;;;;4.93;100.00;100430.91;4951461;28;20165;-65
2021/12/13 05:04:35;;;;;;;14.13;7.18;;;;;;;4.97;100.00;100434.88;4954639;28;20038;-67
2021/12/13 05:07:02;;;;;;;11.85;7.68;;;;;;;5.06;100.00;100434.81;4948814;28;20394;-67
2021/12/13 05:09:27;;;;;;;14.35;7.10;;;;;;;5.05;100.00;100433.16;4953339;28;20385;-67
2021/12/13 05:12:03;;;;;;;12.77;6.78;;;;;;;5.09;100.00;100434.44;4941307;28;20603;-65
2021/12/13 05:14:46;;;;;;;13.32;6.90;;;;;;;5.09;100.00;100437.09;4959038;28;20073;-65
2021/12/13 05:17:23;;;;;;;11.05;5.85;;;;;;;5.11;100.00;100437.75;4954921;28;20089;-65
2021/12/13 05:20:08;;;;;;;10.00;6.35;;;;;;;5.16;100.00;100441.53;4948918;28;20121;-66
2021/12/13 05:22:50;;;;;;;13.10;6.55;;;;;;;5.18;100.00;100438.69;4936134;28;20151;-65
2021/12/13 05:25:52;;;;;;;12.02;6.70;;;;;;;5.18;100.00;100436.03;4949926;28;20869;-67
2021/12/13 05:28:23;;;;;;;10.50;5.93;;;;;;;5.09;100.00;100439.75;4951399;28;20432;-67
2021/12/13 05:30:49;;;;;;;12.05;7.20;;;;;;;5.01;100.00;100442.47;4942552;28;20032;-67
2021/12/13 05:33:16;;;;;;;13.50;8.32;;;;;;;4.97;100.00;100437.53;4955544;28;20031;-67
2021/12/13 05:35:47;;;;;;;16.13;9.25;;;;;;;4.96;100.00;100446.47;4946594;28;20044;-67
2021/12/13 05:38:29;;;;;;;13.38;7.47;;;;;;;4.98;100.00;100436.50;4947940;28;20035;-68
2021/12/13 05:40:55;;;;;;;10.73;6.03;;;;;;;5.07;100.00;100431.16;4953834;28;20641;-67
2021/12/13 05:43:25;;;;;;;13.68;8.02;;;;;;;5.09;100.00;100442.41;4938141;28;20038;-67
2021/12/13 05:46:05;;;;;;;16.05;9.10;;;;;;;5.03;100.00;100437.81;4950046;28;20496;-67
2021/12/13 05:48:33;;;;;;;12.55;6.78;;;;;;;5.03;100.00;100443.13;4947320;28;20882;-67
2021/12/13 05:50:59;;;;;;;15.45;8.25;;;;;;;5.00;100.00;100446.97;4956613;28;20145;-67
2021/12/13 05:53:30;;;;;;;16.40;7.40;;;;;;;5.02;100.00;100444.97;4950698;28;20047;-67
2021/12/13 05:56:10;;;;;;;12.77;7.07;;;;;;;4.95;100.00;100444.03;4947823;28;20764;-67
2021/12/13 05:58:41;;;;;;;13.00;7.47;;;;;;;4.94;100.00;100443.19;4940724;28;20713;-66
2021/12/13 06:01:36;;;;;;;13.95;7.18;;;;;;;4.93;100.00;100446.84;4950171;28;20068;-67
2021/12/13 06:04:07;;;;;;;13.50;7.70;;;;;;;4.93;100.00;100444.19;4953057;28;20049;-68
2021/12/13 06:07:03;;;;;;;13.35;7.40;;;;;;;4.91;100.00;100443.53;4953919;28;20242;-67
2021/12/13 06:09:40;;;;;;;9.38;5.93;;;;;;;4.95;100.00;100444.03;4959802;28;20062;-67
2021/12/13 06:12:07;;;;;;;15.43;8.23;;;;;;;4.94;100.00;100445.84;4934157;28;20198;-67
2021/12/13 06:14:33;;;;;;;15.32;7.95;;;;;;;4.99;100.00;100450.63;4957748;28;20043;-67
2021/12/13 06:17:12;;;;;;;12.73;7.55;;;;;;;4.96;100.00;100451.78;4958955;28;20516;-67
2021/12/13 06:19:40;;;;;;;12.77;7.38;;;;;;;4.93;100.00;100451.34;4955583;28;20034;-67
2021/12/13 06:22:14;;;;;;;11.43;6.55;;;;;;;4.94;100.00;100456.47;4949083;28;20126;-67
2021/12/13 06:24:43;;;;;;;14.32;7.05;;;;;;;4.95;100.00;100459.97;4951878;28;20162;-65
2021/12/13 06:27:12;;;;;;;13.10;7.37;;;;;;;4.95;100.00;100466.09;4951494;28;20099;-65
2021/12/13 06:29:51;;;;;;;10.45;6.53;;;;;;;4.98;100.00;100465.72;4951403;28;20118;-66
2021/12/13 06:33:08;;;;;;;11.73;7.03;;;;;;;4.92;100.00;100469.09;4951331;28;20263;-66
2021/12/13 06:35:50;;;;;;;12.90;7.20;;;;;;;4.95;100.00;100467.94;4929147;28;20047;-66
2021/12/13 06:38:18;;;;;;;14.45;8.13;;;;;;;4.98;100.00;100470.22;4952892;28;20211;-66
2021/12/13 06:40:55;;;;;;;10.63;6.47;;;;;;;4.93;100.00;100468.09;4951771;28;20058;-66
2021/12/13 06:43:30;;;;;;;12.70;7.50;;;;;;;4.97;100.00;100464.09;4936089;28;20138;-66
2021/12/13 06:45:57;;;;;;;13.55;7.88;;;;;;;4.94;100.00;100461.78;4943875;28;20031;-66
2021/12/13 06:48:35;;;;;;;11.68;7.43;;;;;;;4.95;100.00;100455.47;4933893;28;20090;-66
2021/12/13 06:51:03;;;;;;;14.27;7.75;;;;;;;4.92;100.00;100465.63;4940702;28;20027;-67
2021/12/13 06:53:29;;;;;;;14.25;7.88;;;;;;;4.94;100.00;100459.13;4923055;28;20066;-67
2021/12/13 06:55:55;;;;;;;13.50;6.72;;;;;;;4.97;100.00;100463.28;4955642;28;20059;-66
2021/12/13 06:58:28;;;;;;;15.45;8.25;;;;;;;4.94;100.00;100468.91;4937712;28;20118;-67
2021/12/13 07:00:56;;;;;;;12.00;6.82;;;;;;;5.00;100.00;100472.72;4949130;28;20027;-67
2021/12/13 07:03:24;;;;;;;10.98;6.38;;;;;;;5.03;100.00;100469.72;4941519;28;20038;-66
2021/12/13 07:05:54;;;;;;;12.82;7.50;;;;;;;5.05;100.00;100470.38;4933815;28;20042;-67
2021/12/13 07:08:33;;;;;;;11.82;7.05;;;;;;;5.07;100.00;100474.50;4920115;28;20047;-66
2021/12/13 07:11:17;;;;;;;12.55;6.88;;;;;;;5.10;100.00;100474.13;4950006;28;20023;-67
2021/12/13 07:14:03;;;;;;;10.50;6.43;;;;;;;5.16;100.00;100473.41;4955479;28;20150;-67
2021/12/13 07:16:32;;;;;;;10.93;6.70;;;;;;;5.14;100.00;100474.59;4935408;28;22075;-67
2021/12/13 07:19:11;;;;;;;14.45;7.55;;;;;;;5.14;100.00;100478.09;4941171;28;20799;-66
2021/12/13 07:22:00;;;;;;;16.98;8.43;;;;;;;5.08;100.00;100481.44;4941589;28;20058;-66
2021/12/13 07:24:48;;;;;;;15.48;7.63;;;;;;;5.09;100.00;100479.63;4951909;28;20442;-66
2021/12/13 07:27:16;;;;;;;11.50;6.70;;;;;;;5.07;100.00;100484.31;4946261;28;20023;-66
2021/12/13 07:29:58;;;;;;;11.10;6.35;;;;;;;5.14;100.00;100479.91;4921778;28;20031;-66
2021/12/13 07:32:29;;;;;;;10.95;6.85;;;;;;;5.05;100.00;100491.63;4945099;28;20134;-67
2021/12/13 07:35:05;;;;;;;11.73;7.32;;;;;;;5.08;100.00;100493.91;4934810;28;20489;-66
2021/12/13 07:37:54;;;;;;;8.50;5.47;;;;;;;5.17;100.00;100488.38;4952373;28;20035;-66
2021/12/13 07:40:29;;;;;;;9.38;6.20;;;;;;;5.21;100.00;100494.16;4955459;28;20351;-67
2021/12/13 07:43:05;;;;;;;8.75;5.60;;;;;;;5.12;100.00;100490.75;4954291;28;20061;-66
2021/12/13 07:45:44;;;;;;;8.98;4.85;;;;;;;5.15;100.00;100497.53;4939340;28;20483;-66
2021/12/13 07:48:16;;;;;;;11.88;6.53;;;;;;;5.11;100.00;100496.22;4954107;28;20073;-66
2021/12/13 07:50:42;;;;;;;9.60;6.15;;;;;;;5.12;100.00;100504.03;4951523;28;20027;-67
2021/12/13 07:53:12;;;;;;;9.35;6.25;;;;;;;5.09;100.00;100496.41;4952631;28;20795;-67
2021/12/13 07:55:46;;;;;;;7.82;5.47;;;;;;;5.11;100.00;100498.88;4943493;28;20050;-65
2021/12/13 07:58:13;;;;;;;9.70;5.70;;;;;;;5.11;100.00;100498.88;4935711;28;20062;-65
2021/12/13 08:00:40;;;;;;;10.18;6.60;;;;;;;5.14;100.00;100498.53;4925553;28;20039;-67
2021/12/13 08:03:14;;;;;;;9.60;6.05;;;;;;;5.20;100.00;100505.81;4945283;28;20117;-67
2021/12/13 08:05:43;;;;;;;9.43;6.20;;;;;;;5.20;100.00;100497.84;4939800;28;20436;-67
2021/12/13 08:08:23;;;;;;;8.30;5.55;;;;;;;5.21;100.00;100501.31;4936312;28;20154;-65
2021/12/13 08:10:50;;;;;;;9.45;5.35;;;;;;;5.25;100.00;100503.44;4896895;29;20043;-66
2021/12/13 08:13:21;;;;;;;8.98;5.65;;;;;;;5.32;100.00;100501.75;4888717;29;20038;-67
2021/12/13 08:15:59;;;;;;;9.90;5.95;;;;;;;5.34;100.00;100507.72;4924508;28;20070;-66
2021/12/13 08:18:33;;;;;;;8.75;5.20;;;;;;;5.37;100.00;100510.00;4886974;29;20028;-66
2021/12/13 08:21:01;;;;;;;8.38;5.68;;;;;;;5.44;100.00;100509.28;4899646;29;20486;-66
2021/12/13 08:23:45;;;;;;;8.25;5.50;;;;;;;5.54;100.00;100523.16;4930754;29;20039;-66
2021/12/13 08:26:15;;;;;;;8.77;5.55;;;;;;;5.55;100.00;100524.84;4941636;28;20034;-66
2021/12/13 08:28:43;;;;;;;8.77;5.40;;;;;;;5.58;100.00;100519.16;4918503;29;20027;-66
2021/12/13 08:31:11;;;;;;;7.75;5.45;;;;;;;5.67;100.00;100528.75;4905444;29;20086;-66
2021/12/13 08:33:45;;;;;;;9.30;5.53;;;;;;;5.57;100.00;100536.97;4923152;28;20573;-66
2021/12/13 08:36:17;;;;;;;12.30;6.43;;;;;;;5.71;100.00;100529.19;4932646;28;20086;-66
2021/12/13 08:38:59;;;;;;;9.98;5.68;;;;;;;5.67;99.36;100528.75;4912777;29;20110;-66
2021/12/13 08:41:32;;;;;;;7.07;5.00;;;;;;;5.69;99.14;100537.38;4932369;29;20123;-66
2021/12/13 08:44:09;;;;;;;8.98;5.55;;;;;;;5.63;99.63;100530.09;4924909;29;20036;-66
2021/12/13 08:46:47;;;;;;;8.57;5.00;;;;;;;5.65;100.00;100529.91;4919977;29;20027;-66
2021/12/13 08:49:29;;;;;;;7.97;5.22;;;;;;;5.67;99.70;100527.91;4931927;28;20035;-67
2021/12/13 08:52:10;;;;;;;7.03;4.95;;;;;;;5.61;100.00;100535.56;4922694;29;20031;-67
2021/12/13 08:54:38;;;;;;;;;;;;;;;5.61;100.00;100540.06;4912189;29;20401;-65
2021/12/13 08:57:06;;;;;;;5.93;3.67;;;;;;;5.74;99.43;100528.81;4921347;29;19922;-68
2021/12/13 08:59:31;;;;;;;7.40;5.38;;;;;;;5.74;99.71;100537.66;4904855;29;20546;-66
2021/12/13 09:02:07;;;;;;;9.38;4.78;;;;;;;5.66;100.00;100532.38;4906727;29;20062;-65
2021/12/13 09:04:43;;;;;;;7.25;4.60;;;;;;;5.69;100.00;100532.06;4926938;29;20038;-66
2021/12/13 09:07:11;;;;;;;6.40;4.35;;;;;;;5.69;100.00;100536.53;4881106;28;20054;-66
2021/12/13 09:09:44;;;;;;;3.78;2.97;;;;;;;5.66;100.00;100552.84;4891563;29;20082;-65
2021/12/13 09:12:10;;;;;;;7.13;4.93;;;;;;;5.63;100.00;100548.72;4928617;29;20032;-67
2021/12/13 09:14:42;;;;;;;8.77;4.65;;;;;;;5.70;100.00;100548.84;4898433;29;20057;-65
2021/12/13 09:17:22;;;;;;;8.10;5.20;;;;;;;5.59;100.00;100553.56;4911778;29;20032;-67
2021/12/13 09:19:47;;;;;;;7.47;4.73;;;;;;;5.62;100.00;100553.22;4914129;29;20027;-67
2021/12/13 09:22:28;;;;;;;7.40;4.38;;;;;;;5.68;100.00;100556.16;4937446;29;20084;-67
2021/12/13 09:25:05;;;;;;;7.13;4.75;;;;;;;5.72;100.00;100547.66;4930976;29;20043;-67
2021/12/13 09:28:01;;;;;;;8.18;4.82;;;;;;;5.82;100.00;100545.56;4925485;29;20071;-67
2021/12/13 09:30:53;;;;;;;6.47;4.15;;;;;;;5.88;100.00;100551.19;4936702;29;20027;-67
2021/12/13 09:33:36;;;;;;;5.00;3.15;;;;;;;5.90;100.00;100550.00;4927769;28;20051;-67
2021/12/13 09:36:17;;;;;;;9.25;4.88;;;;;;;5.96;100.00;100559.13;4927858;29;20047;-67
2021/12/13 09:39:04;;;;;;;6.25;4.25;;;;;;;5.86;100.00;100563.81;4901479;29;20587;-67
2021/12/13 09:41:46;;;;;;;7.93;5.05;;;;;;;6.05;100.00;100550.06;4930954;29;20412;-67
2021/12/13 09:44:12;;;;;;;8.35;5.03;;;;;;;6.13;99.86;100560.63;4932623;29;20521;-67
2021/12/13 09:47:02;;;;;;;8.85;4.85;;;;;;;6.14;99.87;100569.44;4929248;29;20039;-66
2021/12/13 09:49:33;;;;;;;7.97;5.03;;;;;;;6.12;100.00;100566.97;4933379;29;20036;-67
2021/12/13 09:52:25;;;;;;;7.38;5.22;;;;;;;6.08;100.00;100567.50;4927109;29;20286;-66
2021/12/13 09:54:55;;;;;;;7.75;5.05;;;;;;;6.04;100.00;100572.34;4924734;28;20039;-68
2021/12/13 09:57:28;;;;;;;8.53;5.70;;;;;;;5.92;100.00;100555.97;4932367;28;20031;-67
2021/12/13 09:59:54;;;;;;;7.82;5.20;;;;;;;5.87;100.00;100560.19;4924290;29;20053;-66
2021/12/13 10:02:23;;;;;;;6.20;3.92;;;;;;;5.90;100.00;100549.16;4922736;28;20793;-66
2021/12/13 10:04:49;;;;;;;9.18;5.70;;;;;;;5.97;100.00;100550.16;4921687;28;20079;-66
2021/12/13 10:07:22;;;;;;;6.95;4.45;;;;;;;5.97;100.00;100550.16;4937063;29;20360;-66
2021/12/13 10:09:50;;;;;;;7.55;5.10;;;;;;;6.04;100.00;100562.56;4927352;29;20035;-66
2021/12/13 10:12:28;;;;;;;5.93;4.05;;;;;;;5.95;100.00;100552.16;4898731;29;20119;-67
2021/12/13 10:15:23;;;;;;;7.05;4.20;;;;;;;6.06;100.00;100549.03;4915098;29;20046;-66
2021/12/13 10:17:50;;;;;;;7.90;4.30;;;;;;;6.00;100.00;100550.59;4931947;28;20415;-67
2021/12/13 10:20:22;;;;;;;5.75;3.30;;;;;;;6.04;100.00;100546.56;4906554;29;20119;-67
2021/12/13 10:22:48;;;;;;;8.25;4.45;;;;;;;6.10;100.00;100550.34;4918400;29;20031;-66
2021/12/13 10:25:26;;;;;;;5.45;3.80;;;;;;;6.05;100.00;100542.06;4918842;29;20023;-66
2021/12/13 10:27:52;;;;;;;7.82;4.85;;;;;;;6.10;99.95;100538.88;4909425;29;20023;-66
2021/12/13 10:30:25;;;;;;;6.10;4.63;;;;;;;6.10;99.83;100542.34;4887381;29;20106;-66
2021/12/13 10:32:53;;;;;;;6.45;4.35;;;;;;;6.25;99.47;100537.88;4899203;28;20043;-67
2021/12/13 10:35:21;;;;;;;7.38;4.57;;;;;;;6.30;99.84;100549.81;4924384;29;20336;-67
2021/12/13 10:37:50;;;;;;;6.47;4.20;;;;;;;6.26;99.52;100544.88;4913944;29;20027;-65
2021/12/13 10:40:28;;;;;;;6.00;4.20;;;;;;;6.25;99.44;100542.38;4900374;29;20510;-65
2021/12/13 10:43:00;;;;;;;7.68;4.95;;;;;;;6.47;99.13;100540.66;4932405;29;20035;-65
2021/12/13 10:45:34;;;;;;;7.28;4.82;;;;;;;6.66;98.10;100533.94;4937354;28;20028;-65
2021/12/13 10:48:02;;;;;;;5.97;4.03;;;;;;;6.48;98.44;100537.78;4939318;29;20019;-65
2021/12/13 10:50:44;;;;;;;7.32;4.60;;;;;;;6.39;98.88;100540.72;4928929;29;20649;-67
2021/12/13 10:53:10;;;;;;;5.75;4.00;;;;;;;6.50;98.70;100539.47;4910425;29;20375;-67
2021/12/13 10:55:44;;;;;;;6.03;3.83;;;;;;;6.38;98.71;100547.06;4935810;28;20110;-66
2021/12/13 10:58:13;;;;;;;6.45;3.95;;;;;;;6.43;98.46;100534.84;4910323;29;20210;-66
2021/12/13 11:00:42;;;;;;;9.68;5.15;;;;;;;6.64;97.89;100527.94;4923166;29;20429;-66
2021/12/13 11:03:13;;;;;;;3.90;2.58;;;;;;;6.42;98.73;100529.72;4907816;29;20474;-67
2021/12/13 11:05:39;;;;;;;5.55;3.42;;;;;;;6.67;98.44;100528.44;4893284;29;20039;-65
2021/12/13 11:08:05;;;;;;;4.30;2.97;;;;;;;6.71;96.98;100526.19;4892337;29;20051;-66
2021/12/13 11:10:40;;;;;;;6.57;4.15;;;;;;;6.83;97.14;100521.25;4951699;28;20038;-66
2021/12/13 11:13:06;;;;;;;4.50;3.15;;;;;;;6.72;96.90;100521.72;4935527;28;20053;-66
2021/12/13 11:15:34;;;;;;;5.07;3.33;;;;;;;6.72;97.67;100521.72;4933637;28;20035;-66
2021/12/13 11:18:01;;;;;;;3.80;2.45;;;;;;;6.85;96.69;100520.03;4957517;28;20476;-66
2021/12/13 11:20:41;;;;;;;4.53;2.83;;;;;;;6.68;97.40;100516.75;4949344;28;20046;-66
2021/12/13 11:23:07;;;;;;;5.55;3.00;;;;;;;6.81;96.57;100520.59;4934621;28;20031;-66
2021/12/13 11:25:37;;;;;;;5.13;3.35;;;;;;;6.84;97.01;100520.22;4955559;28;20371;-66
2021/12/13 11:28:03;;;;;;;4.95;3.15;;;;;;;6.86;95.82;100513.72;4951398;28;20027;-66
2021/12/13 11:30:32;;;;;;;3.22;2.17;;;;;;;6.98;95.31;100519.38;4936424;28;20046;-66
2021/12/13 11:32:57;;;;;;;3.95;2.70;;;;;;;7.02;94.99;100511.84;4949708;28;20105;-67
2021/12/13 11:35:46;;;;;;;4.10;2.90;;;;;;;6.97;96.20;100512.41;4951221;28;20034;-65
2021/12/13 11:38:50;;;;;;;4.93;3.17;;;;;;;7.12;95.83;100523.84;4952263;28;20027;-66
2021/12/13 11:41:37;;;;;;;4.75;3.33;;;;;;;7.15;95.62;100511.16;4952753;28;20564;-65
2021/12/13 11:44:22;;;;;;;5.05;3.20;;;;;;;7.23;95.27;100513.69;4947005;28;20031;-65
2021/12/13 11:47:22;;;;;;;5.70;3.28;;;;;;;7.23;95.31;100519.03;4951530;28;20230;-65
2021/12/13 11:49:48;;;;;;;;;;;;;;;7.11;95.12;100524.00;4930619;28;20054;-65
2021/12/13 11:52:25;;;;;;;7.63;3.67;;;;;;;7.27;95.20;100526.47;4954240;28;19918;-65
2021/12/13 11:55:28;;;;;;;4.32;2.92;;;;;;;7.07;95.75;100520.91;4951534;28;20043;-65
2021/12/13 11:58:13;;;;;;;5.22;3.30;;;;;;;7.12;96.07;100515.03;4943754;28;20042;-65